Weather observations for the past three days for
Stampede Pass
| Date | Time (pdt) | Wind (kph) | Vis. (km) | Weather | Sky Cond. | Temperature (ºC) | Relative Humidity | Wind Chill (°C) | Heat Index (°C) | Pressure | Precipitation (cm) | ||||||
|---|---|---|---|---|---|---|---|---|---|---|---|---|---|---|---|---|---|
| Air | Dwpt | 6 hour | altimeter (cm) | sea level (mb) | 1 hr | 3 hr | 6 hr | ||||||||||
| Max. | Min. | ||||||||||||||||
| 03 | 12:56 | Calm | 16.09 | Fair | CLR | 22.2 | 2.2 | 27% | 76.25 | 980.7 | |||||||
| 03 | 11:56 | Calm | 16.09 | Fair | CLR | 19.4 | 0.6 | 29% | 76.3 | 981.3 | |||||||
| 03 | 10:56 | Calm | 16.09 | Fair | CLR | 20 | 3.9 | 20 | 12.8 | 35% | 76.33 | 981.6 | |||||
| 03 | 09:56 | Calm | 16.09 | Fair | CLR | 17.8 | 3.9 | 40% | 76.33 | 981.6 | |||||||
| 03 | 08:56 | Calm | 16.09 | Fair | CLR | 16.1 | 3.3 | 43% | 76.35 | 981.7 | |||||||
| 03 | 07:56 | Calm | 16.09 | Fair | CLR | 13.9 | 5.6 | 58% | 76.33 | 981.6 | |||||||
| 03 | 06:56 | Calm | 16.09 | Fair | CLR | 13.3 | 4.4 | 55% | 76.33 | 981.5 | |||||||
| 03 | 05:56 | Calm | 16.09 | Fair | CLR | 13.3 | 2.2 | 47% | 76.33 | 981.5 | |||||||
| 03 | 04:56 | Calm | 16.09 | Fair | CLR | 13.3 | 2.2 | 15.6 | 13.3 | 47% | 76.35 | 981.7 | |||||
| 03 | 03:56 | Calm | 16.09 | Fair | CLR | 13.9 | 2.2 | 45% | 76.35 | 981.9 | |||||||
| 03 | 02:56 | Calm | 16.09 | Fair | CLR | 13.3 | 2.8 | 49% | 76.35 | 982.0 | |||||||
| 03 | 01:56 | Calm | 16.09 | Fair | CLR | 14.4 | 2.2 | 44% | 76.38 | 982.2 | |||||||
| 03 | 00:56 | Calm | 16.09 | Fair | CLR | 15 | 3.3 | 46% | 76.38 | 982.2 | |||||||
| 02 | 23:56 | Calm | 16.09 | Fair | CLR | 15 | 3.9 | 48% | 76.38 | 982.2 | |||||||
| 02 | 22:56 | Calm | 16.09 | Fair | CLR | 15.6 | 3.9 | 20.6 | 15 | 46% | 76.38 | 982.2 | |||||
| 02 | 21:56 | Calm | 16.09 | Fair | CLR | 15.6 | 3.3 | 44% | 76.38 | 982.0 | |||||||
| 02 | 20:56 | Calm | 16.09 | Fair | CLR | 15.6 | 2.8 | 42% | 76.33 | 981.6 | |||||||
| 02 | 19:56 | Calm | 16.09 | Partly Cloudy | SCT080 | 16.7 | 2.2 | 38% | 76.28 | 981.0 | |||||||
| 02 | 18:56 | Calm | 16.09 | Fair | CLR | 17.2 | 2.8 | 38% | 76.28 | 980.9 | |||||||
| 02 | 17:56 | Calm | 16.09 | Partly Cloudy | SCT110 | 18.3 | 2.8 | 36% | 76.25 | 980.8 | |||||||
| 02 | 16:56 | Calm | 16.09 | Fair | CLR | 20 | 2.2 | 21.1 | 13.3 | 31% | 76.28 | 980.9 | |||||
| 02 | 15:56 | Calm | 16.09 | Fair | CLR | 21.1 | 2.2 | 29% | 76.3 | 981.3 | |||||||
| 02 | 14:56 | Vrbl 6 | 16.09 | Fair | CLR | 20.6 | 2.8 | 31% | 76.33 | 981.6 | |||||||
| 02 | 13:56 | Calm | 16.09 | Fair | CLR | 19.4 | 3.9 | 36% | 76.35 | 981.9 | |||||||
| 02 | 12:56 | Calm | 16.09 | Fair | CLR | 18.3 | 5 | 42% | 76.38 | 982.2 | |||||||
| 02 | 11:56 | Calm | 16.09 | Overcast | OVC100 | 17.2 | 5.6 | 47% | 76.4 | 982.4 | |||||||
| 02 | 10:56 | Calm | 16.09 | Overcast | OVC095 | 12.8 | 4.4 | 15 | 8.9 | 57% | 76.38 | 982.3 | |||||
| 02 | 09:56 | Calm | 16.09 | Overcast | OVC090 | 14.4 | 3.3 | 48% | 76.4 | 982.5 | |||||||
| 02 | 08:56 | Calm | 16.09 | Mostly Cloudy | SCT090 BKN110 | 12.8 | 3.3 | 53% | 76.4 | 982.4 | |||||||
| 02 | 07:56 | Calm | 16.09 | Mostly Cloudy | BKN100 | 12.2 | 3.3 | 55% | 76.35 | 981.9 | |||||||
| 02 | 06:56 | Calm | 16.09 | Mostly Cloudy | BKN110 | 9.4 | 5 | 74% | 76.33 | 981.6 | |||||||
| 02 | 05:56 | Calm | 16.09 | A Few Clouds | FEW110 | 10.6 | 3.3 | 61% | 76.33 | 981.5 | |||||||
| 02 | 04:56 | SW 6 | 16.09 | Overcast | OVC110 | 8.9 | 6.1 | 11.7 | 8.3 | 83% | 76.35 | 981.7 | |||||
| 02 | 03:56 | Calm | 16.09 | Mostly Cloudy | BKN100 | 10.6 | 3.9 | 64% | 76.3 | 981.3 | |||||||
| 02 | 02:56 | Calm | 16.09 | Fair | CLR | 9.4 | 5.6 | 77% | 76.3 | 981.3 | |||||||
| 02 | 01:56 | Calm | 16.09 | Partly Cloudy | SCT090 | 9.4 | 6.1 | 80% | 76.35 | 981.7 | |||||||
| 02 | 00:56 | Calm | 16.09 | Mostly Cloudy | BKN100 BKN110 | 10 | 5.6 | 74% | 76.35 | 981.9 | |||||||
| 01 | 23:56 | SW 9 | 16.09 | Overcast | FEW075 OVC100 | 8.9 | 6.1 | 83% | 8 | 76.38 | 982.2 | ||||||
| 01 | 22:56 | SW 6 | 16.09 | Fair | CLR | 10 | 5.6 | 17.8 | 9.4 | 74% | 76.35 | 981.9 | |||||
| 01 | 21:56 | SW 6 | 16.09 | Partly Cloudy | FEW080 SCT110 | 10 | 6.1 | 77% | 76.35 | 981.8 | |||||||
| 01 | 20:56 | Calm | 16.09 | A Few Clouds | FEW110 | 11.1 | 6.1 | 72% | 76.3 | 981.4 | |||||||
| 01 | 19:56 | SW 6 | 16.09 | A Few Clouds | FEW120 | 12.2 | 6.7 | 69% | 76.28 | 981.0 | |||||||
| 01 | 17:56 | Calm | 16.09 | Fair | CLR | 17.2 | 3.9 | 41% | 76.28 | 981.0 | |||||||
| 01 | 16:56 | Calm | 16.09 | A Few Clouds | FEW075 | 17.8 | 3.3 | 17.8 | 14.4 | 38% | 76.3 | 981.1 | |||||
| 01 | 15:56 | Calm | 16.09 | Partly Cloudy | SCT080 | 16.7 | 3.3 | 41% | 76.33 | 981.6 | |||||||
| 01 | 14:56 | Calm | 16.09 | A Few Clouds | FEW085 | 17.2 | 1.7 | 35% | 76.35 | 981.9 | |||||||
| 01 | 13:56 | Calm | 16.09 | Fair | CLR | 15.6 | 2.2 | 41% | 76.38 | 982.1 | |||||||
| 01 | 12:56 | Calm | 16.09 | Fair | CLR | 15.6 | 2.2 | 41% | 76.38 | 982.2 | |||||||
| 01 | 11:56 | Calm | 16.09 | Fair | CLR | 16.1 | 1.7 | 38% | 76.4 | 982.6 | |||||||
| 01 | 10:56 | Calm | 16.09 | A Few Clouds | FEW080 | 14.4 | 2.8 | 14.4 | 6.1 | 46% | 76.43 | 982.8 | |||||
| 01 | 09:56 | Calm | 16.09 | Fair | CLR | 13.3 | 2.2 | 47% | 76.45 | 983.1 | |||||||
| 01 | 08:56 | Calm | 16.09 | Fair | CLR | 11.7 | 2.8 | 55% | 76.45 | 983.1 | |||||||
| 01 | 07:56 | N 6 | 16.09 | Fair | CLR | 9.4 | 2.2 | 61% | 76.45 | 983.0 | |||||||
| 01 | 06:56 | Calm | 16.09 | Fair | CLR | 7.2 | 1.1 | 66% | 76.43 | 982.7 | |||||||
| 01 | 05:56 | Calm | 16.09 | Fair | CLR | 6.7 | 0.6 | 65% | 76.4 | 982.4 | |||||||
| 01 | 04:56 | Calm | 16.09 | Fair | CLR | 6.7 | 0.6 | 9.4 | 6.1 | 65% | 76.4 | 982.6 | |||||
| 01 | 03:56 | Calm | 16.09 | Fair | CLR | 7.2 | 0 | 61% | 76.4 | 982.5 | |||||||
| 01 | 02:56 | Calm | 16.09 | Fair | CLR | 6.7 | 0.6 | 65% | 76.43 | 982.7 | |||||||
| 01 | 01:56 | Calm | 16.09 | Fair | CLR | 8.3 | 0 | 56% | 76.45 | 983.1 | |||||||
| 01 | 00:56 | Calm | 16.09 | Fair | CLR | 7.8 | 0.6 | 61% | 76.48 | 983.4 | |||||||
| 30 | 23:56 | Calm | 16.09 | Fair | CLR | 9.4 | 0 | 52% | 76.48 | 983.5 | |||||||
| 30 | 22:56 | Calm | 16.09 | Fair | CLR | 9.4 | 0.6 | 16.1 | 8.9 | 55% | 76.48 | 983.5 | |||||
| 30 | 21:56 | Calm | 16.09 | Fair | CLR | 10 | 0.6 | 52% | 76.5 | 983.6 | |||||||
| 30 | 20:56 | Calm | 16.09 | Fair | CLR | 10.6 | 0.6 | 50% | 76.45 | 983.2 | |||||||
| 30 | 19:56 | Calm | 16.09 | Fair | CLR | 12.2 | 0.6 | 45% | 76.45 | 983.1 | |||||||
| 30 | 18:56 | Calm | 16.09 | Fair | CLR | 12.8 | 0.6 | 44% | 76.45 | 983.2 | |||||||
| 30 | 17:56 | Calm | 16.09 | Fair | CLR | 14.4 | 1.7 | 42% | 76.48 | 983.3 | |||||||
| 30 | 15:56 | Calm | 16.09 | Mostly Cloudy | BKN070 | 15 | 0.6 | 38% | 76.56 | 984.4 | |||||||
| 30 | 14:56 | Calm | 16.09 | Mostly Cloudy | BKN070 | 15.6 | 0.6 | 36% | 76.58 | 984.6 | |||||||
| 30 | 13:56 | Vrbl 6 | 16.09 | Fair | CLR | 15.6 | -1.1 | 32% | 76.61 | 984.8 | |||||||
| Date | Time (pdt) | Wind (kph) | Vis. (km) | Weather | Sky Cond. | Air | Dwpt | Max. | Min. | Relative Humidity | Wind Chill (°C) | Heat Index (°C) | altimeter (cm) | sea level (mb) | 1 hr | 3 hr | 6 hr |
| 6 hour | |||||||||||||||||
| Temperature (ºC) | Pressure | Precipitation (cm) | |||||||||||||||